Birk — V2BF5 — position and weather

sailwx.info

Track history (hours):
 
Tides and Currents Weather Stations Pressure Air Temp Water Temp Dewpoint Dewpoint Depression Visibility Wind Speed Wind Dir Waves Ship Positions

Birk

Last reported at 2016-Sep-21 09:33 UTC. Time now 2016-Sep-26 15:44 UTC.
Position N 10°41' W 061°47'.

Length 132 m; draft 6.8 m.

Type: Ship. MMSI: 304535000.

Date/timePositionNaut miles runAvg speedWind from/ knotsBaromVisibWave heightAir tempDewpointWater temp
2016-Sep-21 09:33N 10°41' W 061°47'8 8.0
2016-Sep-21 08:33N 10°37' W 061°40'9 3.1
2016-Sep-21 05:33N 10°39' W 061°31'0 0.0
2016-Sep-21 03:33N 10°39' W 061°31'0 0.0
2016-Sep-21 02:33N 10°39' W 061°31'0 0.0
2016-Sep-20 17:31N 10°39' W 061°31'0 0.0
2016-Sep-20 14:32N 10°39' W 061°31'0 0.0
2016-Sep-20 13:31N 10°39' W 061°31'0 0.0
2016-Sep-20 10:31N 10°39' W 061°31'0 0.0
2016-Sep-20 08:32N 10°39' W 061°31'0 0.0
2016-Sep-20 07:33N 10°39' W 061°31'0 0.0
2016-Sep-20 06:33N 10°39' W 061°31'2 0.5
2016-Sep-20 02:33N 10°38' W 061°33'4 1.4
2016-Sep-19 23:30N 10°38' W 061°37'0 0.0
2016-Sep-19 19:33N 10°37' W 061°37'0 0.0
2016-Sep-19 18:33N 10°37' W 061°37'0 0.0
2016-Sep-19 16:23N 10°38' W 061°37'0 0.1
2016-Sep-19 14:30N 10°38' W 061°37'0 0.0
2016-Sep-19 13:33N 10°38' W 061°37'0 0.0
2016-Sep-19 12:31N 10°38' W 061°37'0 0.0
2016-Sep-19 11:31N 10°38' W 061°37'0 0.1
2016-Sep-19 09:33N 10°37' W 061°37'0 0.0
2016-Sep-19 07:31N 10°37' W 061°37'0 0.0
2016-Sep-19 06:33N 10°37' W 061°37'0 0.0
2016-Sep-19 03:23N 10°38' W 061°37'0 0.1
2016-Sep-19 02:31N 10°38' W 061°37'0 0.0
2016-Sep-19 00:32N 10°38' W 061°37'0 0.0
2016-Sep-18 19:31N 10°37' W 061°37'0 0.0
2016-Sep-18 15:32N 10°38' W 061°37'0 0.1
2016-Sep-18 14:31N 10°38' W 061°37'0 0.0
2016-Sep-18 10:31N 10°37' W 061°37'0 0.1
2016-Sep-18 09:33N 10°37' W 061°37'0 0.0
2016-Sep-18 02:32N 10°38' W 061°37'0 0.0
2016-Sep-18 01:31N 10°38' W 061°37'0 0.0
2016-Sep-18 00:32N 10°38' W 061°37'0 0.0
2016-Sep-17 22:33N 10°38' W 061°37'0 0.1
2016-Sep-17 21:32N 10°37' W 061°37'0 0.1
2016-Sep-17 20:33N 10°37' W 061°37'0 0.0
2016-Sep-17 19:15N 10°37' W 061°37'0 0.0
2016-Sep-17 13:32N 10°38' W 061°37'0 0.0
2016-Sep-17 12:32N 10°38' W 061°37'0 0.0
2016-Sep-17 10:30N 10°38' W 061°37'0 0.1
2016-Sep-17 09:31N 10°37' W 061°37'0 0.1
2016-Sep-17 08:31N 10°37' W 061°37'0 0.0
2016-Sep-17 07:33N 10°37' W 061°37'0 0.0
2016-Sep-17 05:33N 10°37' W 061°37'0 0.0
2016-Sep-17 04:33N 10°37' W 061°37'0 0.1
2016-Sep-17 00:33N 10°38' W 061°37'0 0.0
2016-Sep-16 17:31N 10°37' W 061°37'0 0.0
2016-Sep-16 15:30N 10°37' W 061°37'0 0.1
2016-Sep-16 12:31N 10°38' W 061°37'0 0.0
2016-Sep-16 09:33N 10°38' W 061°37'0 0.1
2016-Sep-16 07:31N 10°37' W 061°37'0 0.0
2016-Sep-16 03:31N 10°37' W 061°37'0 0.1
2016-Sep-16 02:31N 10°38' W 061°37'0 0.1
2016-Sep-16 00:32N 10°38' W 061°37'0 0.0
2016-Sep-15 22:32N 10°38' W 061°37'0 0.0
2016-Sep-15 21:32N 10°38' W 061°37'0 0.1
2016-Sep-15 20:32N 10°37' W 061°37'0 0.1
2016-Sep-15 18:33N 10°37' W 061°37'0 0.0
2016-Sep-15 12:32N 10°38' W 061°37'0 0.1
2016-Sep-15 11:29N 10°38' W 061°37'60 4.6
2016-Sep-14 22:29N 09°53' W 060°57'  
Track history (hours):
 
Tides and Currents Weather Stations Pressure Air Temp Water Temp Dewpoint Dewpoint Depression Visibility Wind Speed Wind Dir Waves Ship Positions

Birk

Last reported at 2016-Sep-21 09:33 UTC. Time now 2016-Sep-26 15:44 UTC.
Position N 10°41' W 061°47'.

Length 132 m; draft 6.8 m.

Type: Ship. MMSI: 304535000.

Date/timePositionNaut miles runAvg speedWind from/ knotsBaromVisibWave heightAir tempDewpointWater temp
2016-Sep-21 09:33N 10°41' W 061°47'8 8.0
2016-Sep-21 08:33N 10°37' W 061°40'9 3.1
2016-Sep-21 05:33N 10°39' W 061°31'0 0.0
2016-Sep-21 03:33N 10°39' W 061°31'0 0.0
2016-Sep-21 02:33N 10°39' W 061°31'0 0.0
2016-Sep-20 17:31N 10°39' W 061°31'0 0.0
2016-Sep-20 14:32N 10°39' W 061°31'0 0.0
2016-Sep-20 13:31N 10°39' W 061°31'0 0.0
2016-Sep-20 10:31N 10°39' W 061°31'0 0.0
2016-Sep-20 08:32N 10°39' W 061°31'0 0.0
2016-Sep-20 07:33N 10°39' W 061°31'0 0.0
2016-Sep-20 06:33N 10°39' W 061°31'2 0.5
2016-Sep-20 02:33N 10°38' W 061°33'4 1.4
2016-Sep-19 23:30N 10°38' W 061°37'0 0.0
2016-Sep-19 19:33N 10°37' W 061°37'0 0.0
2016-Sep-19 18:33N 10°37' W 061°37'0 0.0
2016-Sep-19 16:23N 10°38' W 061°37'0 0.1
2016-Sep-19 14:30N 10°38' W 061°37'0 0.0
2016-Sep-19 13:33N 10°38' W 061°37'0 0.0
2016-Sep-19 12:31N 10°38' W 061°37'0 0.0
2016-Sep-19 11:31N 10°38' W 061°37'0 0.1
2016-Sep-19 09:33N 10°37' W 061°37'0 0.0
2016-Sep-19 07:31N 10°37' W 061°37'0 0.0
2016-Sep-19 06:33N 10°37' W 061°37'0 0.0
2016-Sep-19 03:23N 10°38' W 061°37'0 0.1
2016-Sep-19 02:31N 10°38' W 061°37'0 0.0
2016-Sep-19 00:32N 10°38' W 061°37'0 0.0
2016-Sep-18 19:31N 10°37' W 061°37'0 0.0
2016-Sep-18 15:32N 10°38' W 061°37'0 0.1
2016-Sep-18 14:31N 10°38' W 061°37'0 0.0
2016-Sep-18 10:31N 10°37' W 061°37'0 0.1
2016-Sep-18 09:33N 10°37' W 061°37'0 0.0
2016-Sep-18 02:32N 10°38' W 061°37'0 0.0
2016-Sep-18 01:31N 10°38' W 061°37'0 0.0
2016-Sep-18 00:32N 10°38' W 061°37'0 0.0
2016-Sep-17 22:33N 10°38' W 061°37'0 0.1
2016-Sep-17 21:32N 10°37' W 061°37'0 0.1
2016-Sep-17 20:33N 10°37' W 061°37'0 0.0
2016-Sep-17 19:15N 10°37' W 061°37'0 0.0
2016-Sep-17 13:32N 10°38' W 061°37'0 0.0
2016-Sep-17 12:32N 10°38' W 061°37'0 0.0
2016-Sep-17 10:30N 10°38' W 061°37'0 0.1
2016-Sep-17 09:31N 10°37' W 061°37'0 0.1
2016-Sep-17 08:31N 10°37' W 061°37'0 0.0
2016-Sep-17 07:33N 10°37' W 061°37'0 0.0
2016-Sep-17 05:33N 10°37' W 061°37'0 0.0
2016-Sep-17 04:33N 10°37' W 061°37'0 0.1
2016-Sep-17 00:33N 10°38' W 061°37'0 0.0
2016-Sep-16 17:31N 10°37' W 061°37'0 0.0
2016-Sep-16 15:30N 10°37' W 061°37'0 0.1
2016-Sep-16 12:31N 10°38' W 061°37'0 0.0
2016-Sep-16 09:33N 10°38' W 061°37'0 0.1
2016-Sep-16 07:31N 10°37' W 061°37'0 0.0
2016-Sep-16 03:31N 10°37' W 061°37'0 0.1
2016-Sep-16 02:31N 10°38' W 061°37'0 0.1
2016-Sep-16 00:32N 10°38' W 061°37'0 0.0
2016-Sep-15 22:32N 10°38' W 061°37'0 0.0
2016-Sep-15 21:32N 10°38' W 061°37'0 0.1
2016-Sep-15 20:32N 10°37' W 061°37'0 0.1
2016-Sep-15 18:33N 10°37' W 061°37'0 0.0
2016-Sep-15 12:32N 10°38' W 061°37'0 0.1
2016-Sep-15 11:29N 10°38' W 061°37'60 4.6
2016-Sep-14 22:29N 09°53' W 060°57'  

Dump ship's entire track history